createdAt,value
2019-06-26T00:02:25.278Z,69.72
2019-06-26T00:04:59.787Z,69.73
2019-06-26T00:07:34.395Z,69.77
2019-06-26T00:10:09.267Z,69.82
2019-06-26T00:12:44.435Z,69.85
2019-06-26T00:15:19.109Z,69.89
2019-06-26T00:17:53.552Z,69.81
2019-06-26T00:20:28.057Z,69.80
2019-06-26T00:23:02.589Z,69.76
2019-06-26T00:25:37.102Z,69.79
2019-06-26T00:28:11.652Z,69.87
2019-06-26T00:30:46.189Z,69.91
2019-06-26T00:33:20.712Z,69.98
2019-06-26T00:35:55.213Z,69.97
2019-06-26T00:38:29.735Z,69.98
2019-06-26T00:41:04.237Z,69.99
2019-06-26T00:43:42.537Z,70.04
2019-06-26T00:46:14.917Z,70.12
2019-06-26T00:48:49.533Z,70.19
2019-06-26T00:51:24.222Z,70.30
2019-06-26T00:53:59.141Z,70.28
2019-06-26T00:56:33.565Z,70.40
2019-06-26T00:59:08.087Z,70.92
2019-06-26T01:01:42.863Z,71.05
2019-06-26T01:04:28.255Z,70.80
2019-06-26T01:07:02.686Z,70.64
2019-06-26T01:09:37.210Z,70.58
2019-06-26T01:12:11.770Z,70.61
2019-06-26T01:14:46.350Z,70.60
2019-06-26T01:17:20.841Z,70.61
2019-06-26T01:19:55.362Z,70.57
2019-06-26T01:22:29.926Z,70.57
2019-06-26T01:25:05.590Z,70.59
2019-06-26T01:27:40.098Z,70.55
2019-06-26T01:30:15.086Z,70.59
2019-06-26T01:32:49.728Z,70.62
2019-06-26T01:35:24.274Z,70.58
2019-06-26T01:37:58.781Z,70.60
2019-06-26T01:40:33.309Z,70.69
2019-06-26T01:43:07.806Z,70.70
2019-06-26T01:45:42.340Z,70.70
2019-06-26T01:48:16.837Z,70.81
2019-06-26T01:50:51.381Z,70.85
2019-06-26T01:53:27.018Z,70.91
2019-06-26T01:56:01.521Z,70.93
2019-06-26T01:58:36.062Z,70.99
2019-06-26T02:01:10.692Z,70.89
2019-06-26T02:03:45.174Z,70.94
2019-06-26T02:06:19.819Z,70.92
2019-06-26T02:08:54.260Z,70.88
2019-06-26T02:11:28.801Z,70.89
2019-06-26T02:14:03.483Z,70.84
2019-06-26T02:16:37.940Z,70.71
2019-06-26T02:19:14.093Z,70.66
2019-06-26T02:21:48.606Z,70.63
2019-06-26T02:24:23.104Z,70.64
2019-06-26T02:26:57.692Z,70.74
2019-06-26T02:29:32.197Z,70.77
2019-06-26T02:32:07.786Z,70.85
2019-06-26T02:34:42.217Z,70.83
2019-06-26T02:37:16.735Z,70.90
2019-06-26T02:39:51.259Z,70.90
2019-06-26T02:42:26.940Z,70.87
2019-06-26T02:45:01.612Z,70.85
2019-06-26T02:47:37.130Z,70.83
2019-06-26T02:50:11.626Z,70.81
2019-06-26T02:52:46.078Z,70.76
2019-06-26T02:55:20.585Z,70.66
2019-06-26T02:57:55.115Z,70.60
2019-06-26T03:00:29.579Z,70.54
2019-06-26T03:03:04.079Z,70.52
2019-06-26T03:05:38.678Z,70.44
2019-06-26T03:08:13.108Z,70.37
2019-06-26T03:10:47.612Z,70.34
2019-06-26T03:13:23.099Z,70.24
2019-06-26T03:15:57.618Z,70.09
2019-06-26T03:18:32.226Z,69.95
2019-06-26T03:21:06.746Z,69.81
2019-06-26T03:23:41.253Z,69.73
2019-06-26T03:26:15.691Z,69.65
2019-06-26T03:28:51.204Z,69.65
2019-06-26T03:31:25.662Z,69.52
2019-06-26T03:34:00.229Z,69.36
2019-06-26T03:36:34.740Z,69.13
2019-06-26T03:39:09.419Z,68.91
2019-06-26T03:41:43.873Z,68.62
2019-06-26T03:44:18.451Z,68.43
2019-06-26T03:46:52.898Z,68.12
2019-06-26T03:49:27.332Z,67.83
2019-06-26T03:52:01.781Z,67.64
2019-06-26T03:54:36.191Z,67.42
2019-06-26T03:57:10.787Z,67.25
2019-06-26T03:59:45.221Z,67.03
2019-06-26T04:02:19.675Z,66.81
2019-06-26T04:04:54.098Z,66.54
2019-06-26T04:07:28.602Z,66.12
2019-06-26T04:10:03.432Z,65.93
2019-06-26T04:12:37.968Z,65.67
2019-06-26T04:15:12.657Z,65.48
2019-06-26T04:17:47.119Z,65.34
2019-06-26T04:20:21.740Z,65.21
2019-06-26T04:22:56.255Z,64.96
2019-06-26T04:25:31.668Z,64.94
2019-06-26T04:28:06.559Z,64.98
2019-06-26T04:30:41.160Z,64.78
2019-06-26T04:33:15.667Z,64.53
2019-06-26T04:35:50.092Z,64.29
2019-06-26T04:38:24.596Z,64.07
2019-06-26T04:40:59.026Z,63.87
2019-06-26T04:43:33.458Z,63.62
2019-06-26T04:46:07.932Z,63.17
2019-06-26T04:48:42.393Z,62.67
2019-06-26T04:51:16.803Z,62.08
2019-06-26T04:53:51.325Z,61.78
2019-06-26T04:56:25.754Z,61.70
2019-06-26T04:59:00.196Z,61.62
2019-06-26T05:01:34.621Z,61.49
2019-06-26T05:04:09.087Z,61.45
2019-06-26T05:06:43.582Z,61.16
2019-06-26T05:09:18.193Z,61.06
2019-06-26T05:11:52.702Z,61.13
2019-06-26T05:14:27.223Z,61.13
2019-06-26T05:17:01.745Z,61.07
2019-06-26T05:19:36.183Z,60.99
2019-06-26T05:22:10.576Z,60.79
2019-06-26T05:24:46.478Z,60.86
2019-06-26T05:27:21.119Z,60.75
2019-06-26T05:29:55.562Z,60.60
2019-06-26T05:32:30.063Z,60.46
2019-06-26T05:35:09.990Z,60.47
2019-06-26T05:37:44.474Z,60.33
2019-06-26T05:40:19.238Z,60.25
2019-06-26T05:42:53.738Z,59.80
2019-06-26T05:45:28.240Z,59.82
2019-06-26T05:48:02.866Z,59.58
2019-06-26T05:50:37.452Z,59.28
2019-06-26T05:53:11.876Z,59.15
2019-06-26T05:55:46.529Z,59.21
2019-06-26T05:58:21.000Z,59.07
2019-06-26T06:00:55.446Z,58.94
2019-06-26T06:03:29.859Z,58.84
2019-06-26T06:06:04.453Z,58.78
2019-06-26T06:08:38.936Z,58.76
2019-06-26T06:11:13.378Z,58.81
2019-06-26T06:13:47.866Z,58.72
2019-06-26T06:16:22.374Z,58.72
2019-06-26T06:18:56.793Z,58.61
2019-06-26T06:21:31.230Z,58.48
2019-06-26T06:24:06.290Z,58.47
2019-06-26T06:26:40.854Z,58.66
2019-06-26T06:29:15.283Z,58.80
2019-06-26T06:31:50.811Z,58.67
2019-06-26T06:34:25.510Z,58.39
2019-06-26T06:37:00.017Z,58.27
2019-06-26T06:39:34.451Z,57.70
2019-06-26T06:42:08.910Z,56.88
2019-06-26T06:44:43.329Z,56.50
2019-06-26T06:47:17.843Z,56.44
2019-06-26T06:49:52.387Z,56.06
2019-06-26T06:52:26.860Z,56.03
2019-06-26T06:55:01.303Z,55.79
2019-06-26T06:57:35.761Z,55.25
2019-06-26T07:00:10.443Z,55.14
2019-06-26T07:02:45.036Z,54.88
2019-06-26T07:05:19.950Z,54.61
2019-06-26T07:07:54.473Z,53.87
2019-06-26T07:10:28.893Z,53.74
2019-06-26T07:13:03.411Z,53.11
2019-06-26T07:15:37.844Z,51.90
2019-06-26T07:18:12.362Z,51.04
2019-06-26T07:20:46.780Z,50.99
2019-06-26T07:23:21.225Z,50.22
2019-06-26T07:25:55.671Z,50.51
2019-06-26T07:28:30.104Z,49.83
2019-06-26T07:31:04.599Z,49.00
2019-06-26T07:33:39.112Z,48.67
2019-06-26T07:36:13.539Z,48.62
2019-06-26T07:38:48.002Z,49.03
2019-06-26T07:41:22.560Z,49.12
2019-06-26T07:43:57.011Z,47.98
2019-06-26T07:46:31.489Z,47.88
2019-06-26T07:49:07.087Z,47.80
2019-06-26T07:51:41.698Z,47.93
2019-06-26T07:54:16.285Z,48.08
2019-06-26T07:56:50.717Z,47.71
2019-06-26T07:59:25.137Z,47.89
2019-06-26T08:01:59.715Z,47.61
2019-06-26T08:04:34.148Z,47.67
2019-06-26T08:07:08.630Z,47.64
2019-06-26T08:09:43.148Z,47.46
2019-06-26T08:12:17.671Z,47.59
2019-06-26T08:14:52.165Z,47.80
2019-06-26T08:17:26.671Z,47.62
2019-06-26T08:20:01.189Z,47.16
2019-06-26T08:22:35.742Z,47.17
2019-06-26T08:25:10.629Z,47.24
2019-06-26T08:27:45.065Z,47.28
2019-06-26T08:30:21.049Z,46.90
2019-06-26T08:32:55.605Z,46.92
2019-06-26T08:35:30.068Z,47.21
2019-06-26T08:38:12.484Z,47.41
2019-06-26T08:40:40.789Z,47.41
2019-06-26T08:43:15.292Z,47.27
2019-06-26T08:45:49.812Z,46.86
2019-06-26T08:48:38.819Z,46.98
2019-06-26T08:51:00.534Z,46.81
2019-06-26T08:53:35.340Z,46.98
2019-06-26T08:56:09.834Z,47.08
2019-06-26T08:58:44.915Z,46.80
2019-06-26T09:01:19.596Z,47.02
2019-06-26T09:03:54.090Z,46.67
2019-06-26T09:06:28.544Z,46.47
2019-06-26T09:09:03.030Z,46.49
2019-06-26T09:11:39.427Z,46.54
2019-06-26T09:14:13.916Z,46.72
2019-06-26T09:16:48.410Z,46.90
2019-06-26T09:19:22.818Z,46.67
2019-06-26T09:21:57.275Z,46.87
2019-06-26T09:24:31.772Z,46.76
2019-06-26T09:27:06.220Z,46.74
2019-06-26T09:29:40.883Z,46.51
2019-06-26T09:32:15.479Z,46.18
2019-06-26T09:34:49.907Z,45.75
2019-06-26T09:37:24.353Z,45.60
2019-06-26T09:39:58.777Z,45.29
2019-06-26T09:42:33.261Z,45.58
2019-06-26T09:45:08.279Z,45.66
2019-06-26T09:47:42.784Z,45.87
2019-06-26T09:50:17.341Z,45.90
2019-06-26T09:52:51.792Z,46.19
2019-06-26T09:55:26.380Z,46.43
2019-06-26T09:58:01.044Z,46.68
2019-06-26T10:00:35.745Z,46.42
2019-06-26T10:03:10.391Z,46.46
2019-06-26T10:05:44.880Z,46.71
2019-06-26T10:08:19.436Z,46.87
2019-06-26T10:10:54.827Z,46.58
2019-06-26T10:13:29.380Z,45.97
2019-06-26T10:16:03.849Z,46.13
2019-06-26T10:18:38.428Z,46.15
2019-06-26T10:21:12.924Z,46.08
2019-06-26T10:23:47.441Z,45.93
2019-06-26T10:26:22.222Z,45.83
2019-06-26T10:28:56.653Z,45.61
2019-06-26T10:31:31.180Z,45.82
2019-06-26T10:34:09.722Z,46.06
2019-06-26T10:36:42.898Z,45.74
2019-06-26T10:39:17.361Z,45.94
2019-06-26T10:41:54.851Z,45.78
2019-06-26T10:44:28.085Z,45.70
2019-06-26T10:47:02.639Z,45.31
2019-06-26T10:49:37.293Z,45.14
2019-06-26T10:52:11.917Z,45.13
2019-06-26T10:54:46.386Z,45.09
2019-06-26T10:57:20.874Z,44.87
2019-06-26T10:59:56.016Z,44.33
2019-06-26T11:02:30.696Z,44.51
2019-06-26T11:05:09.173Z,44.44
2019-06-26T11:07:43.773Z,44.64
2019-06-26T11:10:18.772Z,44.23
2019-06-26T11:12:53.200Z,44.26
2019-06-26T11:15:27.711Z,44.43
2019-06-26T11:18:02.127Z,44.17
2019-06-26T11:20:36.701Z,44.66
2019-06-26T11:23:11.134Z,44.63
2019-06-26T11:25:45.645Z,44.98
2019-06-26T11:28:21.217Z,44.93
2019-06-26T11:30:56.039Z,44.74
2019-06-26T11:33:30.564Z,44.44
2019-06-26T11:36:05.215Z,44.52
2019-06-26T11:38:42.507Z,44.04
2019-06-26T11:41:16.939Z,44.19
2019-06-26T11:43:51.427Z,44.17
2019-06-26T11:46:25.948Z,43.89
2019-06-26T11:49:00.904Z,43.82
2019-06-26T11:51:35.492Z,43.81
2019-06-26T11:54:09.997Z,44.01
2019-06-26T11:56:44.653Z,44.32
2019-06-26T11:59:19.081Z,43.85
2019-06-26T12:01:53.679Z,43.53
2019-06-26T12:04:29.037Z,43.24
2019-06-26T12:07:03.649Z,43.21
2019-06-26T12:09:39.176Z,43.57
2019-06-26T12:12:13.668Z,43.63
2019-06-26T12:14:48.224Z,43.98
2019-06-26T12:17:22.674Z,44.03
2019-06-26T12:19:57.102Z,43.51
2019-06-26T12:22:31.611Z,42.55
2019-06-26T12:25:07.009Z,42.22
2019-06-26T12:27:41.458Z,42.69
2019-06-26T12:30:16.111Z,41.92
2019-06-26T12:33:02.474Z,42.79
2019-06-26T12:35:26.942Z,42.93
2019-06-26T12:38:01.384Z,43.07
2019-06-26T12:40:35.890Z,42.34
2019-06-26T12:43:10.402Z,43.11
2019-06-26T12:45:44.903Z,43.01
2019-06-26T12:48:19.427Z,42.63
2019-06-26T12:50:54.004Z,43.29
2019-06-26T12:53:28.513Z,43.15
2019-06-26T12:56:03.003Z,42.78
2019-06-26T12:58:37.516Z,43.01
2019-06-26T13:01:12.012Z,43.12
2019-06-26T13:03:46.529Z,43.03
2019-06-26T13:06:20.930Z,43.13
2019-06-26T13:08:56.598Z,43.35
2019-06-26T13:11:31.111Z,43.56
2019-06-26T13:14:05.856Z,43.40
2019-06-26T13:16:40.405Z,43.53
2019-06-26T13:19:14.915Z,43.41
2019-06-26T13:21:49.415Z,44.14
2019-06-26T13:24:23.888Z,45.01
2019-06-26T13:26:58.384Z,45.29
2019-06-26T13:29:32.821Z,45.04
2019-06-26T13:32:07.243Z,45.35
2019-06-26T13:34:41.716Z,45.62
2019-06-26T13:37:16.149Z,46.29
2019-06-26T13:39:50.597Z,46.65
2019-06-26T13:42:25.081Z,46.30
2019-06-26T13:44:59.523Z,46.62
2019-06-26T13:47:34.022Z,46.73
2019-06-26T13:50:08.978Z,46.90
2019-06-26T13:52:43.461Z,47.17
2019-06-26T13:55:18.091Z,47.01
2019-06-26T13:57:52.646Z,46.50
2019-06-26T14:00:27.615Z,46.62
2019-06-26T14:03:02.118Z,46.65
2019-06-26T14:05:36.680Z,46.84
2019-06-26T14:08:11.188Z,47.16
2019-06-26T14:10:45.730Z,47.44
2019-06-26T14:13:20.295Z,47.80
2019-06-26T14:15:56.014Z,48.14
2019-06-26T14:18:30.655Z,48.30
2019-06-26T14:21:05.556Z,48.25
2019-06-26T14:23:39.980Z,48.50
2019-06-26T14:26:14.454Z,48.43
2019-06-26T14:28:48.844Z,48.22
2019-06-26T14:31:23.760Z,48.02
2019-06-26T14:33:58.261Z,47.59
2019-06-26T14:36:32.913Z,47.07
2019-06-26T14:39:07.943Z,47.34
2019-06-26T14:41:42.568Z,47.41
2019-06-26T14:44:17.012Z,47.11
2019-06-26T14:46:51.584Z,46.93
2019-06-26T14:49:26.166Z,47.06
2019-06-26T14:52:00.813Z,46.89
2019-06-26T14:54:35.300Z,46.67
2019-06-26T14:57:10.033Z,46.20
2019-06-26T14:59:44.451Z,46.23
2019-06-26T15:02:19.098Z,46.38
2019-06-26T15:04:53.544Z,46.28
2019-06-26T15:07:29.103Z,45.93
2019-06-26T15:10:09.358Z,45.78
2019-06-26T15:12:43.927Z,45.45
2019-06-26T15:15:19.993Z,44.18
2019-06-26T15:17:54.625Z,43.72
2019-06-26T15:20:29.130Z,42.11
2019-06-26T15:23:03.644Z,42.43
2019-06-26T15:25:38.063Z,41.26
2019-06-26T15:28:12.581Z,41.63
2019-06-26T15:30:47.049Z,41.99
2019-06-26T15:33:21.504Z,41.27
2019-06-26T15:35:56.031Z,40.04
2019-06-26T15:38:30.669Z,40.32
2019-06-26T15:41:05.223Z,40.36
2019-06-26T15:43:39.863Z,39.55
2019-06-26T15:46:14.426Z,39.28
2019-06-26T15:48:50.386Z,40.32
2019-06-26T15:51:26.100Z,40.29
2019-06-26T15:54:00.570Z,40.63
2019-06-26T15:56:35.122Z,40.28
2019-06-26T15:59:09.718Z,40.48
2019-06-26T16:01:44.296Z,40.76
2019-06-26T16:04:18.836Z,41.18
2019-06-26T16:06:53.437Z,40.24
2019-06-26T16:09:27.982Z,41.14
2019-06-26T16:12:02.473Z,41.44
2019-06-26T16:14:37.001Z,41.31
2019-06-26T16:17:15.896Z,41.08
2019-06-26T16:19:50.329Z,40.87
2019-06-26T16:22:32.054Z,41.06
2019-06-26T16:25:00.907Z,41.46
2019-06-26T16:27:35.514Z,41.07
2019-06-26T16:30:10.122Z,41.16
2019-06-26T16:32:44.635Z,41.16
2019-06-26T16:35:19.328Z,41.42
2019-06-26T16:37:53.896Z,41.77
2019-06-26T16:40:28.321Z,41.83
2019-06-26T16:43:02.754Z,41.88
2019-06-26T16:45:37.194Z,41.30
2019-06-26T16:48:11.614Z,41.21
2019-06-26T16:50:46.086Z,41.88
2019-06-26T16:53:20.570Z,42.36
2019-06-26T16:55:55.150Z,42.81
2019-06-26T16:58:29.606Z,43.22
2019-06-26T17:01:04.327Z,43.29
2019-06-26T17:03:38.823Z,43.62
2019-06-26T17:06:13.362Z,43.45
2019-06-26T17:08:47.857Z,44.11
2019-06-26T17:11:22.450Z,44.35
2019-06-26T17:13:56.886Z,43.95
2019-06-26T17:16:31.425Z,43.29
2019-06-26T17:19:05.967Z,43.69
2019-06-26T17:21:40.436Z,44.53
2019-06-26T17:24:17.129Z,44.74
2019-06-26T17:26:51.742Z,45.08
2019-06-26T17:29:27.150Z,45.31
2019-06-26T17:32:01.666Z,45.48
2019-06-26T17:34:36.366Z,45.17
2019-06-26T17:37:10.858Z,45.11
2019-06-26T17:39:45.358Z,45.05
2019-06-26T17:42:19.793Z,45.73
2019-06-26T17:44:54.279Z,45.97
2019-06-26T17:47:28.800Z,45.57
2019-06-26T17:50:05.136Z,46.26
2019-06-26T17:52:39.700Z,46.92
2019-06-26T17:55:15.067Z,47.71
2019-06-26T17:57:49.568Z,48.17
2019-06-26T18:00:27.034Z,49.38
2019-06-26T18:03:01.505Z,51.15
2019-06-26T18:05:35.954Z,51.84
2019-06-26T18:08:10.369Z,53.36
2019-06-26T18:10:44.925Z,53.51
2019-06-26T18:13:19.442Z,54.54
2019-06-26T18:15:53.936Z,55.04
2019-06-26T18:18:28.592Z,55.91
2019-06-26T18:21:03.131Z,56.04
2019-06-26T18:23:38.754Z,56.66
2019-06-26T18:26:14.065Z,56.97
2019-06-26T18:28:48.687Z,56.96
2019-06-26T18:31:23.461Z,58.08
2019-06-26T18:33:57.911Z,58.03
2019-06-26T18:36:33.634Z,59.19
2019-06-26T18:39:09.120Z,59.71
2019-06-26T18:41:43.544Z,59.60
2019-06-26T18:44:18.107Z,60.12
2019-06-26T18:46:52.552Z,61.81
2019-06-26T18:49:27.068Z,60.65
2019-06-26T18:52:01.508Z,60.90
2019-06-26T18:54:36.022Z,60.45
2019-06-26T18:57:11.680Z,60.48
2019-06-26T18:59:46.224Z,61.21
2019-06-26T19:02:20.748Z,61.18
2019-06-26T19:04:56.193Z,61.77
2019-06-26T19:07:30.701Z,61.73
2019-06-26T19:10:10.465Z,62.03
2019-06-26T19:12:45.026Z,62.55
2019-06-26T19:15:19.814Z,62.46
2019-06-26T19:17:54.417Z,63.36
2019-06-26T19:20:29.043Z,63.81
2019-06-26T19:23:03.611Z,63.87
2019-06-26T19:25:38.146Z,64.08
2019-06-26T19:28:12.556Z,64.80
2019-06-26T19:30:47.022Z,64.34
2019-06-26T19:33:21.473Z,64.35
2019-06-26T19:35:56.001Z,65.79
2019-06-26T19:38:30.482Z,65.50
2019-06-26T19:41:08.389Z,65.33
2019-06-26T19:43:41.507Z,65.40
2019-06-26T19:46:16.222Z,66.27
2019-06-26T19:48:50.664Z,66.76
2019-06-26T19:51:25.107Z,65.61
2019-06-26T19:53:59.609Z,65.75
2019-06-26T19:56:34.077Z,66.27
2019-06-26T19:59:08.523Z,66.30
2019-06-26T20:01:43.042Z,67.00
2019-06-26T20:04:17.466Z,66.28
2019-06-26T20:06:51.895Z,65.95
2019-06-26T20:09:26.457Z,65.87
2019-06-26T20:12:00.944Z,65.66
2019-06-26T20:14:35.439Z,65.60
2019-06-26T20:17:09.880Z,65.69
2019-06-26T20:19:44.330Z,65.63
2019-06-26T20:22:19.083Z,65.61
2019-06-26T20:24:57.414Z,65.54
2019-06-26T20:27:31.832Z,65.60
2019-06-26T20:30:09.750Z,65.83
2019-06-26T20:32:44.255Z,65.71
2019-06-26T20:35:19.657Z,65.82
2019-06-26T20:37:54.432Z,65.95
2019-06-26T20:40:28.935Z,66.00
2019-06-26T20:43:03.723Z,66.18
2019-06-26T20:45:38.248Z,66.21
2019-06-26T20:48:12.717Z,66.68
2019-06-26T20:50:47.197Z,66.53
2019-06-26T20:53:21.791Z,66.12
2019-06-26T20:55:56.427Z,66.31
2019-06-26T20:58:30.955Z,66.27
2019-06-26T21:01:05.461Z,66.15
2019-06-26T21:03:39.908Z,66.43
2019-06-26T21:06:14.353Z,66.32
2019-06-26T21:08:48.875Z,66.71
2019-06-26T21:11:23.382Z,66.60
2019-06-26T21:13:57.904Z,66.60
2019-06-26T21:16:32.344Z,66.63
2019-06-26T21:19:06.791Z,66.65
2019-06-26T21:21:41.303Z,66.63
2019-06-26T21:24:15.772Z,66.87
2019-06-26T21:26:50.261Z,66.64
2019-06-26T21:29:24.789Z,66.89
2019-06-26T21:31:59.282Z,66.95
2019-06-26T21:34:33.725Z,66.97
2019-06-26T21:37:11.556Z,67.05
2019-06-26T21:39:46.207Z,67.01
2019-06-26T21:42:20.684Z,66.99
2019-06-26T21:44:55.207Z,67.35
2019-06-26T21:47:29.704Z,67.55
2019-06-26T21:50:05.891Z,67.42
2019-06-26T21:52:40.345Z,67.25
2019-06-26T21:55:15.029Z,67.33
2019-06-26T21:58:07.358Z,67.23
2019-06-26T22:01:00.170Z,67.29
2019-06-26T22:03:52.786Z,67.37
2019-06-26T22:06:31.701Z,67.24
2019-06-26T22:09:09.066Z,67.08
2019-06-26T22:11:45.187Z,66.92
2019-06-26T22:14:19.861Z,67.20
2019-06-26T22:16:54.468Z,67.32
2019-06-26T22:19:29.811Z,67.19
2019-06-26T22:22:04.666Z,67.29
2019-06-26T22:24:39.091Z,67.53
2019-06-26T22:27:13.699Z,67.62
2019-06-26T22:29:48.180Z,67.52
2019-06-26T22:32:22.613Z,67.87
2019-06-26T22:34:57.094Z,67.74
2019-06-26T22:37:31.604Z,67.87
2019-06-26T22:40:06.450Z,67.72
2019-06-26T22:42:41.062Z,68.17
2019-06-26T22:45:15.900Z,68.02
2019-06-26T22:47:50.408Z,67.84
2019-06-26T22:50:24.827Z,67.88
2019-06-26T22:52:59.395Z,67.77
2019-06-26T22:55:33.887Z,67.93
2019-06-26T22:58:08.487Z,67.89
2019-06-26T23:00:43.006Z,68.09
2019-06-26T23:03:17.595Z,68.65
2019-06-26T23:05:52.124Z,68.29
2019-06-26T23:08:26.669Z,68.07
2019-06-26T23:11:01.134Z,68.04
2019-06-26T23:13:35.622Z,67.67
2019-06-26T23:16:10.252Z,67.58
2019-06-26T23:18:44.811Z,67.51
2019-06-26T23:21:19.390Z,67.58
2019-06-26T23:23:53.881Z,67.68
2019-06-26T23:26:28.383Z,67.62
2019-06-26T23:29:02.948Z,67.36
2019-06-26T23:31:37.394Z,67.49
2019-06-26T23:34:11.899Z,67.60
2019-06-26T23:36:46.335Z,67.66
2019-06-26T23:39:20.834Z,67.73
2019-06-26T23:41:55.329Z,67.75
2019-06-26T23:44:29.763Z,67.76
2019-06-26T23:47:04.262Z,67.81
2019-06-26T23:49:38.704Z,68.06
2019-06-26T23:52:13.142Z,68.21
2019-06-26T23:54:47.648Z,68.27
2019-06-26T23:57:22.096Z,68.22
2019-06-26T23:59:56.603Z,68.25
